Sea Island, Georgia
Current Conditions -  °F | °C
As of 8:36 PM on Sunday 21 Dec 2014 (Local Time) from KSSI Reporting Station
Light Rain Light Rain  
Wind Chill: 56°   Ceiling: 1400
Heat Index: 56°   Visibility: 9mi
Dew Point: 54°   Wind: 12mph
Humidity: 93%   Direction: 30°NNE
Pressure: 30.09"   Gusts: NA
Location:  31.18°N, 81.35°W
Report Text: KSSI 220136Z AUTO 03010KT 9SM -RA FEW005 OVC014 13/12 A3009 RMK AO2 RAE0059B15 P0001 T01330122
Loading
Personal Weather Stations






























Interactive Weather Map New forecast layout! Learn more

10-Day Weather Forecast

Advertisements
Track Severe Weather on mobile